Time;durP1;ratioP1;P1;durP2;ratioP2;P2;SDS_P1;SDS_P2;PMS_P1;PMS_P2;Temp;Humidity;BMP_temperature;BMP_pressure;BME280_temperature;BME280_humidity;BME280_pressure;Samples;Min_cycle;Max_cycle;Signal;HPM_P1;HPM_P2
2022/12/04 00:00:02;;;;;;;44.27;16.95;;;;;;;0.17;95.12;99094.72;1657611;86;26058;-73
2022/12/04 00:02:30;;;;;;;59.08;22.60;;;;;;;0.18;94.87;99098.24;1657570;86;25638;-72
2022/12/04 00:04:56;;;;;;;43.73;18.62;;;;;;;0.21;94.93;99095.08;1657569;86;27482;-73
2022/12/04 00:07:23;;;;;;;57.85;21.55;;;;;;;0.23;94.79;99088.39;1657222;86;25464;-74
2022/12/04 00:09:49;;;;;;;53.00;20.92;;;;;;;0.26;94.61;99086.29;1657306;86;25848;-75
2022/12/04 00:12:16;;;;;;;44.67;17.85;;;;;;;0.26;94.51;99088.47;1657645;86;26099;-74
2022/12/04 00:14:43;;;;;;;33.70;15.88;;;;;;;0.28;94.54;99093.59;1657453;85;25443;-75
2022/12/04 00:17:10;;;;;;;45.90;19.40;;;;;;;0.27;94.37;99092.80;1657231;84;27550;-69
2022/12/04 00:19:36;;;;;;;51.90;21.42;;;;;;;0.29;94.43;99094.71;1657544;86;25464;-74
2022/12/04 00:22:02;;;;;;;53.78;22.42;;;;;;;0.29;94.18;99090.67;1657534;86;25645;-74
2022/12/04 00:24:29;;;;;;;47.75;20.88;;;;;;;0.27;94.23;99096.01;1657382;86;26277;-70
2022/12/04 00:26:56;;;;;;;39.38;18.37;;;;;;;0.29;94.32;99100.10;1657365;86;25420;-70
2022/12/04 00:29:28;;;;;;;57.62;21.40;;;;;;;0.31;94.36;99098.00;1657252;86;27419;-69
2022/12/04 00:32:05;;;;;;;35.88;16.65;;;;;;;0.31;94.08;99087.73;1657412;86;25721;-69
2022/12/04 00:34:38;;;;;;;28.40;12.47;;;;;;;0.30;94.10;99083.41;1657647;86;25456;-69
2022/12/04 00:37:15;;;;;;;49.30;21.05;;;;;;;0.28;94.29;99088.20;1657570;86;27009;-72
2022/12/04 00:39:47;;;;;;;44.53;18.75;;;;;;;0.28;94.29;99092.25;1657353;85;25222;-74
2022/12/04 00:42:21;;;;;;;31.45;12.60;;;;;;;0.26;94.25;99086.29;1657416;85;27478;-73
2022/12/04 00:44:48;;;;;;;46.45;19.80;;;;;;;0.25;94.35;99089.50;1657764;86;25654;-73
2022/12/04 00:47:14;;;;;;;47.55;18.65;;;;;;;0.20;94.29;99090.20;1657638;86;25662;-70
2022/12/04 00:49:41;;;;;;;46.35;18.70;;;;;;;0.21;94.43;99083.78;1657448;85;25955;-74
2022/12/04 00:52:07;;;;;;;52.45;19.70;;;;;;;0.25;94.34;99086.81;1657320;86;25633;-73
2022/12/04 00:54:34;;;;;;;57.75;22.58;;;;;;;0.22;94.12;99090.80;1665772;85;27452;-74
2022/12/04 00:57:00;;;;;;;52.62;21.73;;;;;;;0.20;94.15;99088.86;1674155;85;25690;-70
2022/12/04 00:59:27;;;;;;;46.48;19.57;;;;;;;0.19;94.23;99088.58;1674165;84;25696;-71
2022/12/04 01:01:53;;;;;;;39.27;17.35;;;;;;;0.21;94.39;99081.08;1674292;85;26140;-69
2022/12/04 01:04:19;;;;;;;27.95;10.32;;;;;;;0.21;94.26;99082.95;1674128;84;25768;-73
2022/12/04 01:06:46;;;;;;;43.42;19.92;;;;;;;0.21;94.33;99069.47;1674671;84;27418;-70
2022/12/04 01:09:12;;;;;;;49.60;20.20;;;;;;;0.19;94.31;99076.96;1674326;85;25535;-72
2022/12/04 01:11:39;;;;;;;45.98;17.40;;;;;;;0.20;94.53;99075.92;1674808;85;25582;-70
2022/12/04 01:14:05;;;;;;;29.63;11.12;;;;;;;0.20;94.46;99074.58;1674093;85;26034;-75
2022/12/04 01:16:36;;;;;;;43.68;17.85;;;;;;;0.17;94.53;99082.59;1674614;85;25633;-70
2022/12/04 01:19:09;;;;;;;47.08;19.98;;;;;;;0.18;94.61;99084.25;1674520;85;27190;-69
2022/12/04 01:21:36;;;;;;;37.55;14.83;;;;;;;0.19;94.70;99078.31;1674139;84;25611;-71
2022/12/04 01:24:03;;;;;;;48.60;20.55;;;;;;;0.18;94.63;99075.33;1674224;85;25692;-70
2022/12/04 01:26:30;;;;;;;38.53;15.15;;;;;;;0.20;94.69;99073.23;1674469;85;26068;-75
2022/12/04 01:28:56;;;;;;;40.65;16.05;;;;;;;0.20;94.67;99072.69;1674219;85;25637;-74
2022/12/04 01:31:23;;;;;;;49.00;21.62;;;;;;;0.19;94.55;99064.83;1674343;85;27530;-74
2022/12/04 01:33:50;;;;;;;48.92;19.55;;;;;;;0.16;94.67;99062.09;1674502;84;25515;-69
2022/12/04 01:36:22;;;;;;;46.35;18.70;;;;;;;0.15;94.82;99061.80;1674583;85;25815;-76
2022/12/04 01:38:50;;;;;;;42.55;17.67;;;;;;;0.10;94.85;99062.51;1673378;85;28203;-70
2022/12/04 01:41:21;;;;;;;41.28;18.02;;;;;;;0.09;95.21;99060.84;1674735;84;25709;-72
2022/12/04 01:44:16;;;;;;;48.02;19.25;;;;;;;0.09;95.18;99058.16;1674308;85;26829;-70
2022/12/04 01:46:53;;;;;;;32.17;12.55;;;;;;;0.09;95.17;99054.66;1673065;85;25816;-71
2022/12/04 01:49:24;;;;;;;32.75;14.63;;;;;;;0.07;95.31;99054.89;1674599;84;25745;-70
2022/12/04 01:52:22;;;;;;;40.55;17.07;;;;;;;0.02;95.52;99053.41;1674734;85;26678;-70
2022/12/04 01:54:53;;;;;;;38.33;15.75;;;;;;;-0.01;95.50;99053.36;1673452;85;25728;-70
2022/12/04 01:57:25;;;;;;;39.23;15.18;;;;;;;-0.03;95.60;99056.01;1674280;85;27468;-72
2022/12/04 02:00:08;;;;;;;32.63;12.47;;;;;;;-0.07;95.80;99052.12;1674146;85;25708;-72
2022/12/04 02:02:39;;;;;;;40.28;17.37;;;;;;;-0.07;96.00;99055.64;1674631;85;25436;-70
2022/12/04 02:05:10;;;;;;;36.53;16.23;;;;;;;-0.06;96.10;99043.80;1674399;85;28161;-69
2022/12/04 02:07:39;;;;;;;29.82;9.58;;;;;;;-0.05;96.25;99052.72;1674926;85;25704;-69
2022/12/04 02:10:09;;;;;;;49.08;19.20;;;;;;;-0.04;96.30;99051.66;1674543;85;27453;-70
2022/12/04 02:12:52;;;;;;;43.23;17.62;;;;;;;-0.04;96.19;99039.02;1674497;84;25456;-74
2022/12/04 02:15:27;;;;;;;42.73;18.82;;;;;;;-0.06;96.27;99047.84;1673559;85;25692;-70
2022/12/04 02:18:07;;;;;;;38.35;15.23;;;;;;;-0.09;96.33;99040.23;1673466;85;25987;-69
2022/12/04 02:21:00;;;;;;;44.65;17.90;;;;;;;-0.12;96.46;99047.43;1656324;85;25642;-70
2022/12/04 02:24:10;;;;;;;46.30;19.07;;;;;;;-0.13;96.77;99044.45;1674566;85;28057;-75
2022/12/04 02:26:48;;;;;;;31.62;13.08;;;;;;;-0.09;96.76;99053.70;1674230;85;25447;-69
2022/12/04 02:29:35;;;;;;;45.67;19.12;;;;;;;-0.09;96.76;99047.51;1674210;85;25661;-69
2022/12/04 02:32:24;;;;;;;43.25;18.70;;;;;;;-0.13;96.84;99044.45;1674726;85;25594;-69
2022/12/04 02:35:22;;;;;;;51.68;19.98;;;;;;;-0.11;97.06;99045.56;1674700;84;25760;-72
2022/12/04 02:38:17;;;;;;;29.32;12.50;;;;;;;-0.09;97.03;99034.84;1674380;85;27485;-70
2022/12/04 02:40:51;;;;;;;45.38;17.00;;;;;;;-0.11;97.00;99034.27;1674222;84;25623;-72
2022/12/04 02:43:22;;;;;;;35.13;15.20;;;;;;;-0.12;97.11;99028.57;1674550;85;25700;-70
2022/12/04 02:45:59;;;;;;;38.90;16.30;;;;;;;-0.11;97.05;99032.92;1674024;85;26537;-69
2022/12/04 02:48:30;;;;;;;49.77;19.92;;;;;;;-0.09;97.11;99042.92;1674707;85;25625;-70
2022/12/04 02:50:59;;;;;;;44.20;18.62;;;;;;;-0.07;96.99;99042.17;1674913;84;27533;-75
2022/12/04 02:53:36;;;;;;;46.83;17.65;;;;;;;-0.08;96.96;99037.02;1674411;85;25718;-71
2022/12/04 02:56:13;;;;;;;50.17;19.40;;;;;;;-0.07;96.99;99031.91;1674287;84;25452;-71
2022/12/04 02:58:47;;;;;;;47.15;19.50;;;;;;;-0.05;97.05;99035.20;1674652;85;26865;-70
2022/12/04 03:01:22;;;;;;;30.72;15.23;;;;;;;-0.04;96.91;99040.36;1674463;85;25500;-69
2022/12/04 03:04:06;;;;;;;44.40;17.50;;;;;;;-0.07;96.96;99036.78;1674458;84;26369;-70
2022/12/04 03:06:38;;;;;;;32.78;14.30;;;;;;;-0.06;96.94;99041.11;1674712;84;25880;-71
2022/12/04 03:09:13;;;;;;;;;;;;;;;-0.03;96.92;99053.31;1677057;85;25440;-76
2022/12/04 03:11:45;;;;;;;43.35;17.23;;;;;;;-0.04;96.86;99046.27;1672898;85;26387;-73
2022/12/04 03:14:19;;;;;;;50.43;20.70;;;;;;;-0.04;96.93;99044.41;1674698;84;25435;-69
2022/12/04 03:16:48;;;;;;;43.33;18.17;;;;;;;-0.02;96.86;99041.47;1674265;85;27438;-70
2022/12/04 03:19:35;;;;;;;50.30;20.15;;;;;;;-0.03;96.79;99047.38;1674406;85;25692;-74
2022/12/04 03:22:06;;;;;;;45.23;18.77;;;;;;;-0.02;96.88;99048.20;1674253;85;25657;-70
2022/12/04 03:24:40;;;;;;;42.23;16.40;;;;;;;-0.01;96.83;99049.84;1674600;84;25999;-75
2022/12/04 03:27:33;;;;;;;46.00;19.67;;;;;;;-0.03;96.69;99053.31;1674572;85;25482;-70
2022/12/04 03:30:07;;;;;;;44.90;15.10;;;;;;;-0.03;97.01;99042.53;1674690;84;27559;-76
2022/12/04 03:32:42;;;;;;;43.20;19.05;;;;;;;-0.04;96.97;99042.22;1674210;85;25916;-70
2022/12/04 03:35:35;;;;;;;55.92;20.52;;;;;;;-0.02;97.05;99037.43;1674270;85;25612;-69
2022/12/04 03:38:21;;;;;;;47.73;20.00;;;;;;;-0.01;96.96;99040.41;1673217;85;26041;-72
2022/12/04 03:40:55;;;;;;;43.10;17.00;;;;;;;0.03;96.99;99029.44;1674309;84;25687;-69
2022/12/04 03:43:54;;;;;;;33.50;12.78;;;;;;;0.03;96.90;99034.03;1606528;89;27422;-71
2022/12/04 03:46:40;;;;;;;27.70;11.35;;;;;;;0.02;96.98;99027.81;1606561;89;25843;-70
2022/12/04 03:49:30;;;;;;;43.80;17.90;;;;;;;0.02;96.87;99024.28;1606513;89;25601;-70
2022/12/04 03:52:04;;;;;;;25.27;10.48;;;;;;;0.01;96.85;99034.27;1606551;89;26017;-72
2022/12/04 03:54:38;;;;;;;42.43;17.70;;;;;;;0.00;96.96;99035.33;1605856;88;25518;-71
2022/12/04 03:57:10;;;;;;;47.27;19.73;;;;;;;-0.03;97.08;99032.55;1597457;89;27491;-70
2022/12/04 03:59:50;;;;;;;37.85;15.60;;;;;;;0.01;97.06;99024.00;1596850;89;25883;-72
2022/12/04 04:02:20;;;;;;;23.52;10.38;;;;;;;0.01;96.94;99025.35;1597932;89;25725;-70
2022/12/04 04:04:51;;;;;;;24.05;11.10;;;;;;;-0.02;97.05;99019.40;1597429;89;26157;-72
2022/12/04 04:07:33;;;;;;;49.48;19.30;;;;;;;-0.02;97.10;99019.40;1597583;89;25500;-71
2022/12/04 04:10:16;;;;;;;24.27;10.55;;;;;;;0.01;97.07;99019.97;1597386;89;28154;-70
2022/12/04 04:24:13;;;;;;;45.65;17.75;;;;;;;-0.01;97.22;99012.12;1597633;89;25695;-70
2022/12/04 04:26:36;;;;;;;49.25;19.87;;;;;;;0.06;97.03;99029.52;1666242;86;25446;-72
2022/12/04 04:29:02;;;;;;;44.58;18.65;;;;;;;0.10;97.07;99028.82;1663969;85;25703;-70
2022/12/04 04:31:42;;;;;;;39.80;16.50;;;;;;;0.15;96.97;99026.77;1666537;85;26800;-75
2022/12/04 04:34:40;;;;;;;45.98;19.00;;;;;;;0.16;96.84;99026.22;1666288;85;25638;-69
2022/12/04 04:37:35;;;;;;;38.35;16.42;;;;;;;0.18;96.79;99030.86;1666586;85;28219;-70
2022/12/04 04:40:28;;;;;;;46.55;19.42;;;;;;;0.17;96.78;99034.62;1666020;86;25452;-72
2022/12/04 04:43:12;;;;;;;43.40;17.35;;;;;;;0.17;96.84;99033.27;1616991;88;25745;-70
2022/12/04 04:46:04;;;;;;;47.95;20.72;;;;;;;0.12;96.76;99037.47;1610799;88;26090;-70
2022/12/04 04:48:36;;;;;;;47.83;19.92;;;;;;;0.10;96.78;99028.82;1617155;88;25636;-72
2022/12/04 04:51:04;;;;;;;41.85;16.62;;;;;;;0.13;96.85;99035.61;1615598;88;28082;-72
2022/12/04 04:53:41;;;;;;;53.30;21.05;;;;;;;0.15;96.85;99035.38;1616915;88;25766;-73
2022/12/04 04:56:09;;;;;;;37.83;15.53;;;;;;;0.14;96.76;99033.19;1613627;88;25799;-73
2022/12/04 04:58:35;;;;;;;33.95;12.23;;;;;;;0.12;96.91;99030.73;1617280;88;26102;-69
2022/12/04 05:01:11;;;;;;;45.50;17.30;;;;;;;0.10;96.89;99022.08;1616891;88;25798;-69
2022/12/04 05:03:38;;;;;;;45.25;18.42;;;;;;;0.13;96.97;99022.12;1617181;88;27434;-71
2022/12/04 05:06:05;;;;;;;30.85;12.78;;;;;;;0.15;96.97;99021.38;1617023;88;25761;-72
2022/12/04 05:08:32;;;;;;;29.42;12.53;;;;;;;0.17;97.01;99020.59;1617205;88;25788;-74
2022/12/04 05:10:59;;;;;;;45.83;19.70;;;;;;;0.17;96.92;99016.55;1616997;88;26001;-74
2022/12/04 05:13:27;;;;;;;30.95;13.25;;;;;;;0.20;97.05;99021.47;1617152;88;25784;-73
2022/12/04 05:16:00;;;;;;;35.40;13.45;;;;;;;0.21;96.97;99023.13;1617185;88;27469;-69
2022/12/04 05:18:26;;;;;;;40.17;16.87;;;;;;;0.23;96.97;99025.59;1616863;88;27191;-69
2022/12/04 05:20:53;;;;;;;25.45;10.55;;;;;;;0.26;96.92;99026.98;1651010;85;25552;-69
2022/12/04 05:23:20;;;;;;;43.45;17.57;;;;;;;0.26;96.90;99025.12;1658964;86;26594;-73
2022/12/04 05:25:46;;;;;;;41.13;16.37;;;;;;;0.29;96.83;99023.81;1659006;86;25435;-71
2022/12/04 05:28:12;;;;;;;31.37;13.00;;;;;;;0.27;96.72;99020.53;1658947;86;27383;-69
2022/12/04 05:30:40;;;;;;;40.38;16.02;;;;;;;0.24;96.71;99025.36;1658952;85;25794;-70
2022/12/04 05:33:06;;;;;;;31.30;13.53;;;;;;;0.26;96.83;99026.98;1658867;86;25478;-69
2022/12/04 05:35:32;;;;;;;43.73;17.60;;;;;;;0.22;96.79;99026.11;1658933;86;26032;-73
2022/12/04 05:37:59;;;;;;;24.43;11.53;;;;;;;0.27;96.86;99026.75;1658599;85;25710;-70
2022/12/04 05:40:25;;;;;;;34.67;14.47;;;;;;;0.28;96.88;99027.03;1658971;86;27832;-72
2022/12/04 05:42:51;;;;;;;36.77;15.32;;;;;;;0.30;96.79;99030.32;1658733;86;25627;-72
2022/12/04 05:45:18;;;;;;;33.48;13.98;;;;;;;0.31;96.68;99022.52;1658528;86;25679;-71
2022/12/04 05:47:44;;;;;;;33.25;14.85;;;;;;;0.36;96.69;99036.12;1658801;86;26073;-69
2022/12/04 05:50:12;;;;;;;27.05;11.08;;;;;;;0.35;96.58;99026.37;1659091;86;25698;-70
2022/12/04 05:52:39;;;;;;;24.52;10.98;;;;;;;0.30;96.56;99024.09;1658877;86;27346;-74
2022/12/04 05:55:07;;;;;;;17.85;8.93;;;;;;;0.28;96.60;99027.03;1658951;86;25788;-71
2022/12/04 05:57:33;;;;;;;29.12;13.05;;;;;;;0.24;96.67;99029.40;1658531;85;25499;-69
2022/12/04 05:59:59;;;;;;;29.25;11.48;;;;;;;0.22;96.76;99020.72;1658565;86;26089;-69
2022/12/04 06:02:26;;;;;;;23.07;9.83;;;;;;;0.22;96.80;99034.71;1658609;85;25736;-70
2022/12/04 06:04:52;;;;;;;34.50;14.18;;;;;;;0.19;96.99;99037.88;1655043;86;27502;-73
2022/12/04 06:07:18;;;;;;;30.62;12.98;;;;;;;0.18;96.97;99037.59;1659090;86;25745;-73
2022/12/04 06:09:44;;;;;;;20.02;8.28;;;;;;;0.20;96.94;99036.84;1659006;86;25731;-74
2022/12/04 06:12:11;;;;;;;35.05;15.10;;;;;;;0.19;97.03;99040.58;1658835;86;26041;-75
2022/12/04 06:14:37;;;;;;;21.00;9.80;;;;;;;0.19;96.98;99041.41;1659000;86;25742;-74
2022/12/04 06:17:03;;;;;;;35.73;15.38;;;;;;;0.19;97.07;99040.58;1658967;86;28100;-74
2022/12/04 06:19:29;;;;;;;29.25;10.90;;;;;;;0.19;97.06;99049.48;1661623;85;25754;-74
2022/12/04 06:21:56;;;;;;;19.35;8.68;;;;;;;0.20;97.17;99053.02;1688071;85;25505;-75
2022/12/04 06:24:24;;;;;;;20.52;9.43;;;;;;;0.18;97.08;99040.30;1688215;85;26072;-74
2022/12/04 06:26:56;;;;;;;36.25;15.45;;;;;;;0.16;97.06;99049.13;1688095;84;25502;-75
2022/12/04 06:29:22;;;;;;;28.20;12.88;;;;;;;0.16;97.16;99055.87;1688049;84;27382;-73
2022/12/04 06:31:48;;;;;;;30.45;14.28;;;;;;;0.11;97.16;99049.83;1686579;85;25621;-69
2022/12/04 06:34:15;;;;;;;28.17;11.88;;;;;;;0.10;97.26;99053.59;1686743;85;25432;-69
2022/12/04 06:36:42;;;;;;;34.15;14.10;;;;;;;0.12;97.33;99050.95;1686610;85;26711;-70
2022/12/04 06:39:09;;;;;;;35.88;15.13;;;;;;;0.11;97.35;99049.31;1686509;85;25689;-70
2022/12/04 06:41:36;;;;;;;26.62;11.68;;;;;;;0.16;97.45;99041.05;1686605;85;27464;-75
2022/12/04 06:44:02;;;;;;;36.35;16.50;;;;;;;0.17;97.43;99046.75;1686474;85;25790;-71
2022/12/04 06:46:31;;;;;;;27.60;11.40;;;;;;;0.20;97.38;99054.36;1686415;85;25693;-70
2022/12/04 06:49:00;;;;;;;28.80;13.83;;;;;;;0.21;97.37;99056.00;1686597;85;26756;-75
2022/12/04 06:51:30;;;;;;;31.85;14.70;;;;;;;0.20;97.25;99051.13;1686642;85;25758;-72
2022/12/04 06:53:57;;;;;;;33.50;14.25;;;;;;;0.21;97.25;99056.83;1686556;85;27323;-76
2022/12/04 06:56:27;;;;;;;24.52;10.98;;;;;;;0.20;97.37;99051.67;1686189;85;25665;-75
2022/12/04 06:58:58;;;;;;;26.25;14.40;;;;;;;0.20;97.39;99055.16;1686766;85;25441;-72
2022/12/04 07:01:29;;;;;;;36.70;18.23;;;;;;;0.15;97.36;99052.38;1686597;85;26045;-72
2022/12/04 07:03:57;;;;;;;28.52;13.68;;;;;;;0.16;97.54;99070.17;1686712;85;25495;-71
2022/12/04 07:06:29;;;;;;;30.82;15.18;;;;;;;0.19;97.64;99065.66;1686247;85;27485;-70
2022/12/04 07:09:04;;;;;;;34.10;15.93;;;;;;;0.22;97.69;99077.84;1686175;85;27219;-71
2022/12/04 07:11:31;;;;;;;29.55;13.05;;;;;;;0.24;97.65;99066.31;1686350;85;25439;-74
2022/12/04 07:13:57;;;;;;;30.20;12.45;;;;;;;0.21;97.65;99062.22;1686580;85;25938;-73
2022/12/04 07:16:26;;;;;;;38.30;18.00;;;;;;;0.21;97.75;99050.09;1686694;85;25490;-74
2022/12/04 07:18:53;;;;;;;29.50;13.45;;;;;;;0.23;97.74;99047.16;1686628;85;27461;-74
2022/12/04 07:21:23;;;;;;;26.45;12.13;;;;;;;0.28;97.88;99044.55;1686114;85;25434;-73
2022/12/04 07:23:53;;;;;;;32.30;16.87;;;;;;;0.30;97.78;99045.15;1686721;85;25649;-72
2022/12/04 07:26:20;;;;;;;30.90;13.53;;;;;;;0.31;97.65;99047.30;1686899;85;26075;-73
2022/12/04 07:28:47;;;;;;;27.02;12.63;;;;;;;0.27;97.61;99053.70;1686224;85;25688;-75
2022/12/04 07:31:18;;;;;;;32.28;16.07;;;;;;;0.27;97.82;99054.23;1686686;85;27949;-75
2022/12/04 07:33:45;;;;;;;32.67;16.40;;;;;;;0.30;97.92;99052.41;1686806;85;25744;-71
2022/12/04 07:36:15;;;;;;;32.25;14.90;;;;;;;0.35;97.93;99041.74;1686425;85;25717;-71
2022/12/04 07:38:42;;;;;;;40.30;16.90;;;;;;;0.35;97.84;99051.98;1686628;85;26140;-74
2022/12/04 07:41:11;;;;;;;34.18;16.10;;;;;;;0.40;97.83;99050.47;1686249;85;25646;-75
2022/12/04 07:43:38;;;;;;;40.55;17.00;;;;;;;0.44;97.78;99057.86;1686485;85;27485;-74
2022/12/04 07:46:09;;;;;;;33.75;13.58;;;;;;;0.49;97.77;99061.19;1686585;85;25650;-74
2022/12/04 07:48:36;;;;;;;43.83;19.98;;;;;;;0.49;97.53;99073.33;1686607;85;25841;-70
2022/12/04 07:51:10;;;;;;;22.45;10.65;;;;;;;0.53;97.52;99066.39;1686336;85;26005;-73
2022/12/04 07:53:37;;;;;;;38.28;18.12;;;;;;;0.51;97.36;99060.95;1681489;85;25788;-74
2022/12/04 07:56:06;;;;;;;28.05;12.78;;;;;;;0.46;97.40;99064.36;1686257;85;27393;-76
2022/12/04 07:58:33;;;;;;;31.55;14.43;;;;;;;0.52;97.65;99070.16;1686459;85;25628;-76
2022/12/04 08:01:16;;;;;;;30.12;13.58;;;;;;;0.53;97.42;99067.74;1686561;85;25761;-71
2022/12/04 08:03:46;;;;;;;38.20;17.27;;;;;;;0.55;97.39;99075.59;1686184;85;26006;-75
2022/12/04 08:06:13;;;;;;;44.42;18.87;;;;;;;0.60;97.48;99071.64;1686498;85;25475;-75
2022/12/04 08:08:39;;;;;;;33.00;14.55;;;;;;;0.61;97.34;99067.91;1686399;85;27765;-74
2022/12/04 08:11:10;;;;;;;32.85;13.75;;;;;;;0.58;97.23;99065.14;1686546;85;25729;-73
2022/12/04 08:13:37;;;;;;;31.02;12.43;;;;;;;0.56;97.39;99060.53;1686651;85;25624;-76
2022/12/04 08:16:07;;;;;;;31.82;13.70;;;;;;;0.61;97.51;99067.91;1686623;85;26069;-71
2022/12/04 08:18:33;;;;;;;35.88;15.18;;;;;;;0.61;97.43;99066.02;1686768;85;25621;-75
2022/12/04 08:21:13;;;;;;;38.13;15.80;;;;;;;0.60;97.35;99066.25;1686341;85;27414;-71
2022/12/04 08:23:41;;;;;;;28.45;13.70;;;;;;;0.56;97.40;99067.79;1686566;85;25467;-72
2022/12/04 08:26:09;;;;;;;30.40;13.03;;;;;;;0.52;97.72;99065.28;1686572;85;25682;-71
2022/12/04 08:28:36;;;;;;;27.82;12.23;;;;;;;0.54;97.71;99069.38;1686244;85;28200;-75
2022/12/04 08:31:11;;;;;;;43.78;16.77;;;;;;;0.58;97.86;99066.48;1686619;85;25677;-71
2022/12/04 08:33:38;;;;;;;38.40;17.02;;;;;;;0.56;97.61;99061.05;1686463;85;27145;-74
2022/12/04 08:36:10;;;;;;;32.88;13.75;;;;;;;0.58;97.80;99070.53;1686159;85;26102;-72
2022/12/04 08:38:37;;;;;;;37.85;15.98;;;;;;;0.58;97.86;99061.64;1686436;85;25522;-70
2022/12/04 08:41:07;;;;;;;37.98;16.23;;;;;;;0.64;98.02;99063.39;1686275;85;26044;-74
2022/12/04 08:43:34;;;;;;;35.15;13.95;;;;;;;0.71;97.92;99073.51;1686615;85;25798;-70
2022/12/04 08:46:04;;;;;;;28.80;11.83;;;;;;;0.77;97.96;99070.93;1686133;85;27531;-75
2022/12/04 08:48:31;;;;;;;40.35;14.70;;;;;;;0.82;97.82;99069.14;1682816;85;26226;-73
2022/12/04 08:50:58;;;;;;;31.40;14.07;;;;;;;0.86;97.55;99070.30;1686278;85;25691;-69
2022/12/04 08:53:25;;;;;;;59.18;24.50;;;;;;;0.84;97.35;99068.36;1686191;85;25994;-71
2022/12/04 08:55:52;;;;;;;35.73;15.58;;;;;;;0.82;97.17;99064.27;1686039;85;25473;-76
2022/12/04 08:58:19;;;;;;;17.23;8.50;;;;;;;0.78;97.32;99058.55;1686011;85;27429;-76
2022/12/04 09:00:45;;;;;;;28.57;11.78;;;;;;;0.74;97.35;99057.37;1686184;85;26029;-74
2022/12/04 09:03:15;;;;;;;29.42;12.28;;;;;;;0.76;97.65;99063.35;1686214;85;25665;-75
2022/12/04 09:05:44;;;;;;;37.73;15.72;;;;;;;0.84;97.82;99072.95;1686264;85;25990;-74
2022/12/04 09:08:12;;;;;;;19.62;8.50;;;;;;;0.91;97.73;99075.50;1686071;85;25768;-73
2022/12/04 09:10:40;;;;;;;26.23;11.83;;;;;;;0.89;97.12;99078.98;1686184;85;28307;-74
2022/12/04 09:13:06;;;;;;;32.67;12.35;;;;;;;0.86;97.35;99077.05;1685849;85;25769;-74
2022/12/04 09:15:33;;;;;;;40.33;16.45;;;;;;;0.91;97.65;99072.28;1686539;85;25617;-76
2022/12/04 09:18:00;;;;;;;30.20;12.07;;;;;;;0.96;97.47;99073.74;1674804;85;26133;-76
2022/12/04 09:20:26;;;;;;;27.48;11.70;;;;;;;1.04;97.48;99077.94;1654197;85;25685;-75
2022/12/04 09:22:52;;;;;;;37.55;14.90;;;;;;;1.09;97.36;99070.45;1647652;87;27366;-74
2022/12/04 09:25:19;;;;;;;34.88;15.43;;;;;;;1.17;97.32;99070.08;1647323;86;25765;-74
2022/12/04 09:27:46;;;;;;;39.65;16.80;;;;;;;1.27;97.26;99074.03;1647891;87;25697;-74
2022/12/04 09:30:13;;;;;;;30.77;14.53;;;;;;;1.36;97.28;99078.78;1647155;87;26028;-74
2022/12/04 09:32:39;;;;;;;34.85;16.70;;;;;;;1.42;96.45;99066.73;1647686;86;25506;-74
2022/12/04 09:35:07;;;;;;;28.45;13.93;;;;;;;1.46;96.22;99069.23;1647422;86;27583;-74
2022/12/04 09:37:35;;;;;;;41.42;16.05;;;;;;;1.53;96.13;99067.21;1646993;87;25465;-72
2022/12/04 09:40:04;;;;;;;38.65;17.85;;;;;;;1.58;95.95;99060.53;1647266;86;25713;-75
2022/12/04 09:42:51;;;;;;;36.77;16.95;;;;;;;1.61;95.75;99061.39;1644511;87;26037;-73
2022/12/04 09:45:21;;;;;;;27.48;11.90;;;;;;;1.69;95.95;99062.87;1647147;87;25666;-72
2022/12/04 09:47:57;;;;;;;34.33;14.93;;;;;;;1.63;95.03;99066.55;1646558;87;27505;-76
2022/12/04 09:50:35;;;;;;;37.88;16.45;;;;;;;1.59;94.81;99056.78;1647446;86;25880;-76
2022/12/04 09:53:12;;;;;;;29.05;13.30;;;;;;;1.62;95.25;99056.27;1647560;87;25629;-72
2022/12/04 09:55:58;;;;;;;26.60;12.37;;;;;;;1.60;95.03;99044.91;1647693;87;26595;-74
2022/12/04 09:58:42;;;;;;;52.58;28.92;;;;;;;1.59;94.83;99049.20;1647026;87;25450;-74
2022/12/04 10:01:28;;;;;;;30.12;13.83;;;;;;;1.60;95.16;99041.37;1647118;87;27468;-74
2022/12/04 10:03:55;;;;;;;23.60;11.28;;;;;;;1.61;95.01;99041.66;1647496;86;26275;-72
2022/12/04 10:06:42;;;;;;;29.92;15.03;;;;;;;1.58;94.78;99041.62;1647489;87;25645;-75
2022/12/04 10:09:29;;;;;;;16.73;8.00;;;;;;;1.63;95.05;99037.66;1647839;87;27020;-74
2022/12/04 10:12:31;;;;;;;32.70;15.85;;;;;;;1.73;95.19;99028.89;1585995;89;25551;-76
2022/12/04 10:15:29;;;;;;;26.37;12.23;;;;;;;1.73;94.34;99036.99;1585995;89;26740;-76
2022/12/04 10:18:00;;;;;;;28.45;12.93;;;;;;;1.70;94.26;99035.33;1586049;90;25773;-74
2022/12/04 10:21:11;;;;;;;29.72;15.25;;;;;;;1.72;94.44;99033.19;1586248;89;25594;-73
2022/12/04 10:23:55;;;;;;;29.05;12.68;;;;;;;1.81;94.92;99034.97;1586012;90;26145;-73
2022/12/04 10:26:27;;;;;;;38.88;17.52;;;;;;;1.93;94.54;99031.62;1586321;89;25812;-75
2022/12/04 10:29:01;;;;;;;45.90;22.85;;;;;;;2.00;94.59;99036.34;1586018;90;27336;-73
2022/12/04 10:31:30;;;;;;;34.25;15.18;;;;;;;2.08;94.28;99031.05;1586352;90;25760;-75
2022/12/04 10:34:07;;;;;;;33.25;16.57;;;;;;;2.12;94.36;99029.48;1586042;90;25646;-75
2022/12/04 10:36:34;;;;;;;49.27;22.90;;;;;;;2.17;93.61;99021.14;1586539;89;26105;-76
2022/12/04 10:39:06;;;;;;;40.90;19.95;;;;;;;2.07;93.31;99025.89;1582517;89;25911;-76
2022/12/04 10:41:46;;;;;;;54.27;29.40;;;;;;;1.98;93.34;99026.30;1586200;90;27494;-71
2022/12/04 10:44:16;;;;;;;35.20;16.52;;;;;;;1.90;93.21;99012.39;1586452;89;25780;-76
2022/12/04 10:46:43;;;;;;;43.75;20.40;;;;;;;1.88;93.84;99020.20;1586497;90;25614;-74
2022/12/04 10:49:24;;;;;;;31.27;14.50;;;;;;;1.92;93.88;99019.18;1622769;87;26174;-75
2022/12/04 10:51:51;;;;;;;29.87;15.60;;;;;;;1.83;93.32;99022.01;1651945;84;25716;-73
2022/12/04 10:54:34;;;;;;;26.73;12.13;;;;;;;1.79;93.77;99009.54;1657513;85;28153;-75
2022/12/04 10:57:07;;;;;;;48.68;23.07;;;;;;;1.87;94.07;99005.58;1647493;85;25805;-70
2022/12/04 10:59:36;;;;;;;134.45;51.53;;;;;;;1.96;94.35;99010.05;1646311;86;25715;-74
2022/12/04 11:02:23;;;;;;;29.65;15.20;;;;;;;1.98;93.68;99011.95;1645346;87;26101;-74
2022/12/04 11:05:02;;;;;;;19.35;8.35;;;;;;;2.07;93.87;99014.52;1644281;85;25764;-74
2022/12/04 11:07:36;;;;;;;46.68;20.52;;;;;;;2.06;92.88;99010.72;1643102;85;27485;-74
2022/12/04 11:10:08;;;;;;;38.88;17.23;;;;;;;1.95;92.88;99015.16;1649089;84;26219;-71
2022/12/04 11:12:34;;;;;;;36.55;17.57;;;;;;;1.86;93.06;99008.83;1653378;85;25883;-74
2022/12/04 11:15:09;;;;;;;43.28;22.60;;;;;;;1.83;93.72;99001.22;1658874;86;26638;-72
2022/12/04 11:17:35;;;;;;;30.00;14.73;;;;;;;1.82;93.68;98987.95;1658085;85;25693;-74
2022/12/04 11:20:09;;;;;;;38.02;18.65;;;;;;;1.88;94.12;98994.52;1658649;86;27483;-76
2022/12/04 11:22:41;;;;;;;39.08;17.17;;;;;;;1.95;94.11;98993.53;1677187;85;25872;-75
2022/12/04 11:25:13;;;;;;;31.37;15.43;;;;;;;2.01;93.92;98991.19;1686878;85;25440;-73
2022/12/04 11:27:39;;;;;;;33.80;16.32;;;;;;;2.06;93.53;98985.86;1687861;85;26460;-75
2022/12/04 11:30:14;;;;;;;42.62;20.75;;;;;;;2.12;93.72;98982.69;1687723;85;25626;-71
2022/12/04 11:32:40;;;;;;;48.48;18.82;;;;;;;2.16;93.55;98987.87;1687767;84;27417;-74
2022/12/04 11:35:18;;;;;;;41.63;15.93;;;;;;;2.16;93.40;98983.02;1684609;84;25667;-75
2022/12/04 11:38:08;;;;;;;71.02;28.75;;;;;;;2.06;93.01;98988.56;1687936;85;25469;-76
2022/12/04 11:40:36;;;;;;;56.55;27.55;;;;;;;1.98;93.15;98988.45;1688257;85;25994;-72
2022/12/04 11:43:10;;;;;;;40.38;21.93;;;;;;;2.03;93.75;98994.99;1687414;85;25642;-73
2022/12/04 11:45:37;;;;;;;47.53;22.22;;;;;;;2.09;93.65;98998.05;1686289;84;27481;-75
2022/12/04 11:48:17;;;;;;;39.05;19.10;;;;;;;2.11;93.27;98988.65;1687511;84;25746;-75
2022/12/04 11:51:31;;;;;;;38.40;17.60;;;;;;;2.17;93.49;98994.11;1687942;85;25726;-76
2022/12/04 11:54:27;;;;;;;28.92;12.85;;;;;;;2.19;92.98;98997.39;1687529;85;25744;-76
2022/12/04 11:57:14;;;;;;;27.17;11.73;;;;;;;2.18;92.80;98995.21;1619583;88;25494;-75
2022/12/04 12:00:08;;;;;;;56.50;21.20;;;;;;;2.15;92.70;98994.36;1620916;88;27479;-74